sensor_id;sensor_type;location;lat;lon;timestamp;P1;durP1;ratioP1;P2;durP2;ratioP2
12675;SDS011;63820;65.654;21.944;2023-07-16T00:00:01;4.07;;;2.10;;
12675;SDS011;63820;65.654;21.944;2023-07-16T00:02:48;2.37;;;1.67;;
12675;SDS011;63820;65.654;21.944;2023-07-16T00:05:32;4.53;;;2.00;;
12675;SDS011;63820;65.654;21.944;2023-07-16T00:08:16;1.60;;;1.50;;
12675;SDS011;63820;65.654;21.944;2023-07-16T00:10:59;2.63;;;1.80;;
12675;SDS011;63820;65.654;21.944;2023-07-16T00:13:43;1.63;;;1.53;;
12675;SDS011;63820;65.654;21.944;2023-07-16T00:16:30;2.00;;;1.80;;
12675;SDS011;63820;65.654;21.944;2023-07-16T00:19:15;2.93;;;1.87;;
12675;SDS011;63820;65.654;21.944;2023-07-16T00:21:59;2.47;;;1.90;;
12675;SDS011;63820;65.654;21.944;2023-07-16T00:24:43;2.13;;;1.83;;
12675;SDS011;63820;65.654;21.944;2023-07-16T00:27:27;2.27;;;2.07;;
12675;SDS011;63820;65.654;21.944;2023-07-16T00:30:11;2.00;;;1.80;;
12675;SDS011;63820;65.654;21.944;2023-07-16T00:32:55;2.30;;;1.93;;
12675;SDS011;63820;65.654;21.944;2023-07-16T00:35:39;1.90;;;1.70;;
12675;SDS011;63820;65.654;21.944;2023-07-16T00:38:23;1.90;;;1.70;;
12675;SDS011;63820;65.654;21.944;2023-07-16T00:41:07;1.60;;;1.50;;
12675;SDS011;63820;65.654;21.944;2023-07-16T00:43:51;1.60;;;1.50;;
12675;SDS011;63820;65.654;21.944;2023-07-16T00:46:35;2.30;;;1.80;;
12675;SDS011;63820;65.654;21.944;2023-07-16T00:49:19;1.80;;;1.50;;
12675;SDS011;63820;65.654;21.944;2023-07-16T00:52:04;1.97;;;1.57;;
12675;SDS011;63820;65.654;21.944;2023-07-16T00:54:51;3.00;;;1.60;;
12675;SDS011;63820;65.654;21.944;2023-07-16T00:57:35;2.00;;;1.80;;
12675;SDS011;63820;65.654;21.944;2023-07-16T01:00:20;1.50;;;1.40;;
12675;SDS011;63820;65.654;21.944;2023-07-16T01:03:05;1.50;;;1.40;;
12675;SDS011;63820;65.654;21.944;2023-07-16T01:08:58;1.63;;;1.53;;
12675;SDS011;63820;65.654;21.944;2023-07-16T01:11:47;1.80;;;1.70;;
12675;SDS011;63820;65.654;21.944;2023-07-16T01:14:32;2.33;;;1.60;;
12675;SDS011;63820;65.654;21.944;2023-07-16T01:17:16;1.50;;;1.40;;
12675;SDS011;63820;65.654;21.944;2023-07-16T01:20:00;1.67;;;1.57;;
12675;SDS011;63820;65.654;21.944;2023-07-16T01:31:49;1.80;;;1.50;;
12675;SDS011;63820;65.654;21.944;2023-07-16T01:34:35;2.63;;;1.50;;
12675;SDS011;63820;65.654;21.944;2023-07-16T01:37:20;1.53;;;1.43;;
12675;SDS011;63820;65.654;21.944;2023-07-16T01:40:05;1.50;;;1.40;;
12675;SDS011;63820;65.654;21.944;2023-07-16T01:42:52;2.17;;;1.50;;
12675;SDS011;63820;65.654;21.944;2023-07-16T01:45:36;3.17;;;1.50;;
12675;SDS011;63820;65.654;21.944;2023-07-16T01:48:30;3.10;;;2.00;;
12675;SDS011;63820;65.654;21.944;2023-07-16T01:51:17;1.87;;;1.60;;
12675;SDS011;63820;65.654;21.944;2023-07-16T01:54:04;2.07;;;1.50;;
12675;SDS011;63820;65.654;21.944;2023-07-16T01:56:48;1.83;;;1.50;;
12675;SDS011;63820;65.654;21.944;2023-07-16T01:59:32;1.60;;;1.50;;
12675;SDS011;63820;65.654;21.944;2023-07-16T02:02:15;1.93;;;1.60;;
12675;SDS011;63820;65.654;21.944;2023-07-16T02:04:59;2.20;;;1.70;;
12675;SDS011;63820;65.654;21.944;2023-07-16T02:07:43;1.70;;;1.60;;
12675;SDS011;63820;65.654;21.944;2023-07-16T02:10:28;2.13;;;1.60;;
12675;SDS011;63820;65.654;21.944;2023-07-16T02:13:12;1.90;;;1.77;;
12675;SDS011;63820;65.654;21.944;2023-07-16T02:15:56;2.27;;;1.80;;
12675;SDS011;63820;65.654;21.944;2023-07-16T02:18:41;2.27;;;1.80;;
12675;SDS011;63820;65.654;21.944;2023-07-16T02:21:25;2.37;;;1.57;;
12675;SDS011;63820;65.654;21.944;2023-07-16T02:24:09;1.70;;;1.60;;
12675;SDS011;63820;65.654;21.944;2023-07-16T02:26:53;2.63;;;1.50;;
12675;SDS011;63820;65.654;21.944;2023-07-16T02:29:37;2.17;;;1.60;;
12675;SDS011;63820;65.654;21.944;2023-07-16T02:32:21;2.60;;;2.00;;
12675;SDS011;63820;65.654;21.944;2023-07-16T02:35:05;3.47;;;1.60;;
12675;SDS011;63820;65.654;21.944;2023-07-16T02:37:50;2.17;;;1.67;;
12675;SDS011;63820;65.654;21.944;2023-07-16T02:40:34;1.73;;;1.63;;
12675;SDS011;63820;65.654;21.944;2023-07-16T02:43:18;1.60;;;1.50;;
12675;SDS011;63820;65.654;21.944;2023-07-16T02:46:02;2.33;;;1.70;;
12675;SDS011;63820;65.654;21.944;2023-07-16T02:48:46;2.60;;;2.10;;
12675;SDS011;63820;65.654;21.944;2023-07-16T02:51:30;3.43;;;1.73;;
12675;SDS011;63820;65.654;21.944;2023-07-16T02:54:14;2.77;;;2.00;;
12675;SDS011;63820;65.654;21.944;2023-07-16T02:56:58;3.10;;;2.03;;
12675;SDS011;63820;65.654;21.944;2023-07-16T02:59:42;2.23;;;2.03;;
12675;SDS011;63820;65.654;21.944;2023-07-16T03:02:26;3.77;;;1.80;;
12675;SDS011;63820;65.654;21.944;2023-07-16T03:05:11;2.90;;;2.00;;
12675;SDS011;63820;65.654;21.944;2023-07-16T03:07:54;2.90;;;2.10;;
12675;SDS011;63820;65.654;21.944;2023-07-16T03:10:38;2.17;;;1.97;;
12675;SDS011;63820;65.654;21.944;2023-07-16T03:13:23;2.57;;;2.00;;
12675;SDS011;63820;65.654;21.944;2023-07-16T03:16:07;2.60;;;2.10;;
12675;SDS011;63820;65.654;21.944;2023-07-16T03:18:51;2.83;;;2.40;;
12675;SDS011;63820;65.654;21.944;2023-07-16T03:21:37;3.20;;;2.53;;
12675;SDS011;63820;65.654;21.944;2023-07-16T03:24:20;4.10;;;2.63;;
12675;SDS011;63820;65.654;21.944;2023-07-16T03:27:05;2.93;;;2.40;;
12675;SDS011;63820;65.654;21.944;2023-07-16T03:29:50;2.73;;;2.10;;
12675;SDS011;63820;65.654;21.944;2023-07-16T03:32:34;2.97;;;2.13;;
12675;SDS011;63820;65.654;21.944;2023-07-16T03:35:18;3.20;;;2.60;;
12675;SDS011;63820;65.654;21.944;2023-07-16T03:38:02;1.87;;;1.73;;
12675;SDS011;63820;65.654;21.944;2023-07-16T03:40:47;2.60;;;2.17;;
12675;SDS011;63820;65.654;21.944;2023-07-16T03:43:32;1.97;;;1.77;;
12675;SDS011;63820;65.654;21.944;2023-07-16T03:46:16;2.53;;;2.00;;
12675;SDS011;63820;65.654;21.944;2023-07-16T03:49:00;2.90;;;2.13;;
12675;SDS011;63820;65.654;21.944;2023-07-16T03:51:44;1.60;;;1.50;;
12675;SDS011;63820;65.654;21.944;2023-07-16T03:54:28;2.17;;;1.63;;
12675;SDS011;63820;65.654;21.944;2023-07-16T03:57:12;2.25;;;1.92;;
12675;SDS011;63820;65.654;21.944;2023-07-16T03:59:56;1.70;;;1.60;;
12675;SDS011;63820;65.654;21.944;2023-07-16T04:02:40;1.95;;;1.67;;
12675;SDS011;63820;65.654;21.944;2023-07-16T04:05:24;2.22;;;1.80;;
12675;SDS011;63820;65.654;21.944;2023-07-16T04:08:09;1.73;;;1.60;;
12675;SDS011;63820;65.654;21.944;2023-07-16T04:10:53;2.00;;;1.80;;
12675;SDS011;63820;65.654;21.944;2023-07-16T04:13:37;2.53;;;1.88;;
12675;SDS011;63820;65.654;21.944;2023-07-16T04:16:21;1.92;;;1.83;;
12675;SDS011;63820;65.654;21.944;2023-07-16T04:19:05;2.50;;;2.15;;
12675;SDS011;63820;65.654;21.944;2023-07-16T04:21:49;3.35;;;1.95;;
12675;SDS011;63820;65.654;21.944;2023-07-16T04:24:33;2.67;;;1.70;;
12675;SDS011;63820;65.654;21.944;2023-07-16T04:27:17;2.30;;;1.65;;
12675;SDS011;63820;65.654;21.944;2023-07-16T04:30:02;2.77;;;1.80;;
12675;SDS011;63820;65.654;21.944;2023-07-16T04:32:46;2.10;;;1.70;;
12675;SDS011;63820;65.654;21.944;2023-07-16T04:35:30;3.10;;;1.93;;
12675;SDS011;63820;65.654;21.944;2023-07-16T04:38:15;2.17;;;1.97;;
12675;SDS011;63820;65.654;21.944;2023-07-16T04:40:59;2.33;;;2.00;;
12675;SDS011;63820;65.654;21.944;2023-07-16T04:43:43;2.10;;;1.80;;
12675;SDS011;63820;65.654;21.944;2023-07-16T04:46:27;2.80;;;2.30;;
12675;SDS011;63820;65.654;21.944;2023-07-16T04:49:12;2.97;;;1.90;;
12675;SDS011;63820;65.654;21.944;2023-07-16T04:51:56;2.07;;;1.80;;
12675;SDS011;63820;65.654;21.944;2023-07-16T04:54:40;2.40;;;2.00;;
12675;SDS011;63820;65.654;21.944;2023-07-16T04:57:24;2.43;;;2.10;;
12675;SDS011;63820;65.654;21.944;2023-07-16T05:00:08;3.13;;;1.90;;
12675;SDS011;63820;65.654;21.944;2023-07-16T05:02:52;2.53;;;1.80;;
12675;SDS011;63820;65.654;21.944;2023-07-16T05:05:36;2.13;;;1.80;;
12675;SDS011;63820;65.654;21.944;2023-07-16T05:08:20;1.75;;;1.52;;
12675;SDS011;63820;65.654;21.944;2023-07-16T05:11:04;1.83;;;1.35;;
12675;SDS011;63820;65.654;21.944;2023-07-16T05:13:48;1.63;;;1.40;;
12675;SDS011;63820;65.654;21.944;2023-07-16T05:16:32;2.58;;;1.52;;
12675;SDS011;63820;65.654;21.944;2023-07-16T05:19:16;1.83;;;1.50;;
12675;SDS011;63820;65.654;21.944;2023-07-16T05:22:00;2.35;;;1.52;;
12675;SDS011;63820;65.654;21.944;2023-07-16T05:24:44;2.17;;;1.50;;
12675;SDS011;63820;65.654;21.944;2023-07-16T05:27:28;2.37;;;1.40;;
12675;SDS011;63820;65.654;21.944;2023-07-16T05:30:12;1.30;;;1.20;;
12675;SDS011;63820;65.654;21.944;2023-07-16T05:32:56;1.87;;;1.50;;
12675;SDS011;63820;65.654;21.944;2023-07-16T05:35:40;1.37;;;1.23;;
12675;SDS011;63820;65.654;21.944;2023-07-16T05:38:24;1.38;;;1.25;;
12675;SDS011;63820;65.654;21.944;2023-07-16T05:41:08;1.48;;;1.38;;
12675;SDS011;63820;65.654;21.944;2023-07-16T05:43:52;2.23;;;1.20;;
12675;SDS011;63820;65.654;21.944;2023-07-16T05:46:36;1.30;;;1.20;;
12675;SDS011;63820;65.654;21.944;2023-07-16T05:49:20;1.40;;;1.30;;
12675;SDS011;63820;65.654;21.944;2023-07-16T05:52:04;1.63;;;1.20;;
12675;SDS011;63820;65.654;21.944;2023-07-16T05:54:48;1.10;;;1.00;;
12675;SDS011;63820;65.654;21.944;2023-07-16T05:57:32;1.42;;;1.25;;
12675;SDS011;63820;65.654;21.944;2023-07-16T06:00:16;2.05;;;1.58;;
12675;SDS011;63820;65.654;21.944;2023-07-16T06:03:03;1.33;;;1.23;;
12675;SDS011;63820;65.654;21.944;2023-07-16T06:05:47;1.45;;;1.35;;
12675;SDS011;63820;65.654;21.944;2023-07-16T06:08:31;1.50;;;1.40;;
12675;SDS011;63820;65.654;21.944;2023-07-16T06:11:15;1.85;;;1.40;;
12675;SDS011;63820;65.654;21.944;2023-07-16T06:13:59;1.40;;;1.30;;
12675;SDS011;63820;65.654;21.944;2023-07-16T06:16:43;1.20;;;1.10;;
12675;SDS011;63820;65.654;21.944;2023-07-16T06:19:27;2.10;;;1.25;;
12675;SDS011;63820;65.654;21.944;2023-07-16T06:22:11;0.93;;;0.90;;
12675;SDS011;63820;65.654;21.944;2023-07-16T06:24:55;1.20;;;1.10;;
12675;SDS011;63820;65.654;21.944;2023-07-16T06:27:39;1.42;;;1.10;;
12675;SDS011;63820;65.654;21.944;2023-07-16T06:30:23;0.90;;;0.90;;
12675;SDS011;63820;65.654;21.944;2023-07-16T06:33:07;1.55;;;1.10;;
12675;SDS011;63820;65.654;21.944;2023-07-16T06:35:51;1.02;;;0.93;;
12675;SDS011;63820;65.654;21.944;2023-07-16T06:38:35;1.30;;;1.20;;
12675;SDS011;63820;65.654;21.944;2023-07-16T06:41:19;1.00;;;1.00;;
12675;SDS011;63820;65.654;21.944;2023-07-16T06:44:03;1.85;;;1.15;;
12675;SDS011;63820;65.654;21.944;2023-07-16T06:46:47;1.20;;;1.10;;
12675;SDS011;63820;65.654;21.944;2023-07-16T06:49:31;1.40;;;1.27;;
12675;SDS011;63820;65.654;21.944;2023-07-16T06:52:19;1.35;;;1.05;;
12675;SDS011;63820;65.654;21.944;2023-07-16T06:55:08;1.17;;;1.08;;
12675;SDS011;63820;65.654;21.944;2023-07-16T06:57:52;2.08;;;1.10;;
12675;SDS011;63820;65.654;21.944;2023-07-16T07:00:37;1.30;;;1.20;;
12675;SDS011;63820;65.654;21.944;2023-07-16T07:03:21;1.65;;;1.10;;
12675;SDS011;63820;65.654;21.944;2023-07-16T07:06:05;1.30;;;1.20;;
12675;SDS011;63820;65.654;21.944;2023-07-16T07:08:49;2.05;;;1.08;;
12675;SDS011;63820;65.654;21.944;2023-07-16T07:11:33;1.20;;;1.10;;
12675;SDS011;63820;65.654;21.944;2023-07-16T07:14:17;1.67;;;1.20;;
12675;SDS011;63820;65.654;21.944;2023-07-16T07:17:01;1.38;;;1.27;;
12675;SDS011;63820;65.654;21.944;2023-07-16T07:19:45;1.95;;;1.40;;
12675;SDS011;63820;65.654;21.944;2023-07-16T07:22:29;1.95;;;1.10;;
12675;SDS011;63820;65.654;21.944;2023-07-16T07:25:13;1.20;;;1.10;;
12675;SDS011;63820;65.654;21.944;2023-07-16T07:27:57;2.03;;;0.90;;
12675;SDS011;63820;65.654;21.944;2023-07-16T07:30:41;1.33;;;1.10;;
12675;SDS011;63820;65.654;21.944;2023-07-16T07:33:25;1.27;;;1.17;;
12675;SDS011;63820;65.654;21.944;2023-07-16T07:36:09;1.50;;;0.90;;
12675;SDS011;63820;65.654;21.944;2023-07-16T07:38:53;1.30;;;1.20;;
12675;SDS011;63820;65.654;21.944;2023-07-16T07:41:37;1.45;;;1.15;;
12675;SDS011;63820;65.654;21.944;2023-07-16T07:44:22;0.80;;;0.80;;
12675;SDS011;63820;65.654;21.944;2023-07-16T07:47:06;1.20;;;1.10;;
12675;SDS011;63820;65.654;21.944;2023-07-16T07:49:52;1.00;;;1.00;;
12675;SDS011;63820;65.654;21.944;2023-07-16T07:52:36;2.20;;;1.60;;
12675;SDS011;63820;65.654;21.944;2023-07-16T07:55:20;2.13;;;1.15;;
12675;SDS011;63820;65.654;21.944;2023-07-16T07:58:04;2.95;;;1.67;;
12675;SDS011;63820;65.654;21.944;2023-07-16T08:00:48;1.73;;;1.50;;
12675;SDS011;63820;65.654;21.944;2023-07-16T08:03:32;2.33;;;1.60;;
12675;SDS011;63820;65.654;21.944;2023-07-16T08:06:17;2.20;;;1.70;;
12675;SDS011;63820;65.654;21.944;2023-07-16T08:09:01;3.67;;;1.65;;
12675;SDS011;63820;65.654;21.944;2023-07-16T08:11:46;1.50;;;1.40;;
12675;SDS011;63820;65.654;21.944;2023-07-16T08:14:30;1.50;;;1.30;;
12675;SDS011;63820;65.654;21.944;2023-07-16T08:17:13;2.25;;;1.48;;
12675;SDS011;63820;65.654;21.944;2023-07-16T08:19:58;2.15;;;1.55;;
12675;SDS011;63820;65.654;21.944;2023-07-16T08:22:42;1.63;;;1.35;;
12675;SDS011;63820;65.654;21.944;2023-07-16T08:25:27;1.63;;;1.52;;
12675;SDS011;63820;65.654;21.944;2023-07-16T08:28:11;1.50;;;1.40;;
12675;SDS011;63820;65.654;21.944;2023-07-16T08:30:56;2.58;;;1.50;;
12675;SDS011;63820;65.654;21.944;2023-07-16T08:33:40;2.08;;;1.38;;
12675;SDS011;63820;65.654;21.944;2023-07-16T08:36:25;1.58;;;1.40;;
12675;SDS011;63820;65.654;21.944;2023-07-16T08:39:09;2.08;;;1.30;;
12675;SDS011;63820;65.654;21.944;2023-07-16T08:41:53;2.10;;;1.50;;
12675;SDS011;63820;65.654;21.944;2023-07-16T08:44:38;1.30;;;1.20;;
12675;SDS011;63820;65.654;21.944;2023-07-16T08:47:23;1.40;;;1.30;;
12675;SDS011;63820;65.654;21.944;2023-07-16T08:50:07;2.08;;;1.35;;
12675;SDS011;63820;65.654;21.944;2023-07-16T08:52:51;1.67;;;1.20;;
12675;SDS011;63820;65.654;21.944;2023-07-16T08:55:37;1.40;;;1.30;;
12675;SDS011;63820;65.654;21.944;2023-07-16T08:58:23;1.70;;;1.30;;
12675;SDS011;63820;65.654;21.944;2023-07-16T09:01:08;1.83;;;1.30;;
12675;SDS011;63820;65.654;21.944;2023-07-16T09:03:53;2.75;;;1.50;;
12675;SDS011;63820;65.654;21.944;2023-07-16T09:06:38;1.73;;;1.35;;
12675;SDS011;63820;65.654;21.944;2023-07-16T09:09:22;2.72;;;1.50;;
12675;SDS011;63820;65.654;21.944;2023-07-16T09:12:10;1.95;;;1.50;;
12675;SDS011;63820;65.654;21.944;2023-07-16T09:14:56;2.70;;;1.52;;
12675;SDS011;63820;65.654;21.944;2023-07-16T09:17:39;1.60;;;1.40;;
12675;SDS011;63820;65.654;21.944;2023-07-16T09:20:23;1.67;;;1.58;;
12675;SDS011;63820;65.654;21.944;2023-07-16T09:23:08;1.48;;;1.38;;
12675;SDS011;63820;65.654;21.944;2023-07-16T09:25:52;1.65;;;1.55;;
12675;SDS011;63820;65.654;21.944;2023-07-16T09:28:40;2.22;;;1.38;;
12675;SDS011;63820;65.654;21.944;2023-07-16T09:31:24;1.80;;;1.47;;
12675;SDS011;63820;65.654;21.944;2023-07-16T09:34:09;2.80;;;1.70;;
12675;SDS011;63820;65.654;21.944;2023-07-16T09:36:53;2.37;;;1.50;;
12675;SDS011;63820;65.654;21.944;2023-07-16T09:39:37;1.73;;;1.60;;
12675;SDS011;63820;65.654;21.944;2023-07-16T09:42:21;1.67;;;1.53;;
12675;SDS011;63820;65.654;21.944;2023-07-16T09:45:07;2.33;;;1.60;;
12675;SDS011;63820;65.654;21.944;2023-07-16T09:48:01;2.57;;;1.50;;
12675;SDS011;63820;65.654;21.944;2023-07-16T09:50:49;1.97;;;1.40;;
12675;SDS011;63820;65.654;21.944;2023-07-16T09:53:37;1.60;;;1.50;;
12675;SDS011;63820;65.654;21.944;2023-07-16T09:56:25;1.85;;;1.65;;
12675;SDS011;63820;65.654;21.944;2023-07-16T09:59:18;2.37;;;1.50;;
12675;SDS011;63820;65.654;21.944;2023-07-16T10:02:06;2.40;;;1.70;;
12675;SDS011;63820;65.654;21.944;2023-07-16T10:04:54;1.90;;;1.60;;
12675;SDS011;63820;65.654;21.944;2023-07-16T10:07:39;2.23;;;1.30;;
12675;SDS011;63820;65.654;21.944;2023-07-16T10:10:43;2.50;;;1.53;;
12675;SDS011;63820;65.654;21.944;2023-07-16T10:13:27;1.57;;;1.47;;
12675;SDS011;63820;65.654;21.944;2023-07-16T10:16:19;3.00;;;1.53;;
12675;SDS011;63820;65.654;21.944;2023-07-16T10:19:05;2.00;;;1.57;;
12675;SDS011;63820;65.654;21.944;2023-07-16T10:21:49;2.07;;;1.87;;
12675;SDS011;63820;65.654;21.944;2023-07-16T10:24:33;2.00;;;1.70;;
12675;SDS011;63820;65.654;21.944;2023-07-16T10:27:30;3.20;;;1.80;;
12675;SDS011;63820;65.654;21.944;2023-07-16T10:30:16;1.60;;;1.50;;
12675;SDS011;63820;65.654;21.944;2023-07-16T10:33:10;2.50;;;1.63;;
12675;SDS011;63820;65.654;21.944;2023-07-16T10:35:56;2.87;;;1.83;;
12675;SDS011;63820;65.654;21.944;2023-07-16T10:38:44;2.63;;;1.90;;
12675;SDS011;63820;65.654;21.944;2023-07-16T10:41:28;2.70;;;1.67;;
12675;SDS011;63820;65.654;21.944;2023-07-16T10:44:14;3.03;;;1.83;;
12675;SDS011;63820;65.654;21.944;2023-07-16T10:46:59;2.63;;;1.93;;
12675;SDS011;63820;65.654;21.944;2023-07-16T10:49:44;3.83;;;2.00;;
12675;SDS011;63820;65.654;21.944;2023-07-16T10:52:28;2.53;;;2.33;;
12675;SDS011;63820;65.654;21.944;2023-07-16T10:55:12;2.90;;;2.00;;
12675;SDS011;63820;65.654;21.944;2023-07-16T10:57:56;2.73;;;1.67;;
12675;SDS011;63820;65.654;21.944;2023-07-16T11:00:40;2.83;;;1.93;;
12675;SDS011;63820;65.654;21.944;2023-07-16T11:03:24;4.60;;;2.17;;
12675;SDS011;63820;65.654;21.944;2023-07-16T11:06:08;3.30;;;2.10;;
12675;SDS011;63820;65.654;21.944;2023-07-16T11:08:53;2.93;;;2.30;;
12675;SDS011;63820;65.654;21.944;2023-07-16T11:11:37;2.73;;;2.13;;
12675;SDS011;63820;65.654;21.944;2023-07-16T11:14:21;3.20;;;2.27;;
12675;SDS011;63820;65.654;21.944;2023-07-16T11:17:05;2.63;;;2.20;;
12675;SDS011;63820;65.654;21.944;2023-07-16T11:19:52;2.43;;;2.10;;
12675;SDS011;63820;65.654;21.944;2023-07-16T11:22:37;3.20;;;2.50;;
12675;SDS011;63820;65.654;21.944;2023-07-16T11:25:23;2.40;;;2.20;;
12675;SDS011;63820;65.654;21.944;2023-07-16T11:28:08;3.57;;;2.17;;
12675;SDS011;63820;65.654;21.944;2023-07-16T11:30:52;2.40;;;2.20;;
12675;SDS011;63820;65.654;21.944;2023-07-16T11:33:35;3.10;;;2.40;;
12675;SDS011;63820;65.654;21.944;2023-07-16T11:36:20;4.10;;;2.50;;
12675;SDS011;63820;65.654;21.944;2023-07-16T11:39:03;2.30;;;2.17;;
12675;SDS011;63820;65.654;21.944;2023-07-16T11:41:55;2.40;;;2.20;;
12675;SDS011;63820;65.654;21.944;2023-07-16T11:44:40;3.07;;;2.57;;
12675;SDS011;63820;65.654;21.944;2023-07-16T11:47:24;2.50;;;2.30;;
12675;SDS011;63820;65.654;21.944;2023-07-16T11:50:08;3.00;;;2.60;;
12675;SDS011;63820;65.654;21.944;2023-07-16T11:52:53;3.00;;;2.20;;
12675;SDS011;63820;65.654;21.944;2023-07-16T11:55:38;2.40;;;2.20;;
12675;SDS011;63820;65.654;21.944;2023-07-16T11:58:22;3.10;;;2.30;;
12675;SDS011;63820;65.654;21.944;2023-07-16T12:01:06;3.37;;;2.50;;
12675;SDS011;63820;65.654;21.944;2023-07-16T12:03:50;3.30;;;2.37;;
12675;SDS011;63820;65.654;21.944;2023-07-16T12:06:34;3.67;;;2.40;;
12675;SDS011;63820;65.654;21.944;2023-07-16T12:09:18;3.40;;;2.33;;
12675;SDS011;63820;65.654;21.944;2023-07-16T12:12:02;3.37;;;2.23;;
12675;SDS011;63820;65.654;21.944;2023-07-16T12:14:46;2.63;;;2.23;;
12675;SDS011;63820;65.654;21.944;2023-07-16T12:17:30;2.70;;;2.20;;
12675;SDS011;63820;65.654;21.944;2023-07-16T12:20:14;2.40;;;2.10;;
12675;SDS011;63820;65.654;21.944;2023-07-16T12:22:58;2.47;;;2.20;;
12675;SDS011;63820;65.654;21.944;2023-07-16T12:25:42;2.40;;;2.20;;
12675;SDS011;63820;65.654;21.944;2023-07-16T12:28:26;3.90;;;2.30;;
12675;SDS011;63820;65.654;21.944;2023-07-16T12:31:10;2.40;;;1.87;;
12675;SDS011;63820;65.654;21.944;2023-07-16T12:33:54;2.70;;;2.17;;
12675;SDS011;63820;65.654;21.944;2023-07-16T12:36:38;3.17;;;2.20;;
12675;SDS011;63820;65.654;21.944;2023-07-16T12:39:22;2.30;;;2.10;;
12675;SDS011;63820;65.654;21.944;2023-07-16T12:42:06;2.70;;;2.13;;
12675;SDS011;63820;65.654;21.944;2023-07-16T12:44:50;3.70;;;2.20;;
12675;SDS011;63820;65.654;21.944;2023-07-16T12:47:34;5.73;;;2.30;;
12675;SDS011;63820;65.654;21.944;2023-07-16T12:50:18;3.20;;;2.17;;
12675;SDS011;63820;65.654;21.944;2023-07-16T12:53:02;2.43;;;2.00;;
12675;SDS011;63820;65.654;21.944;2023-07-16T12:55:46;2.70;;;1.90;;
12675;SDS011;63820;65.654;21.944;2023-07-16T12:58:30;2.57;;;2.03;;
12675;SDS011;63820;65.654;21.944;2023-07-16T13:01:14;2.10;;;1.90;;
12675;SDS011;63820;65.654;21.944;2023-07-16T13:03:58;2.17;;;1.80;;
12675;SDS011;63820;65.654;21.944;2023-07-16T13:06:42;1.73;;;1.63;;
12675;SDS011;63820;65.654;21.944;2023-07-16T13:09:29;2.73;;;1.57;;
12675;SDS011;63820;65.654;21.944;2023-07-16T13:12:13;3.10;;;1.73;;
12675;SDS011;63820;65.654;21.944;2023-07-16T13:14:57;2.27;;;1.90;;
12675;SDS011;63820;65.654;21.944;2023-07-16T13:17:41;2.17;;;1.97;;
12675;SDS011;63820;65.654;21.944;2023-07-16T13:20:25;1.90;;;1.80;;
12675;SDS011;63820;65.654;21.944;2023-07-16T13:23:09;1.83;;;1.67;;
12675;SDS011;63820;65.654;21.944;2023-07-16T13:25:53;1.87;;;1.70;;
12675;SDS011;63820;65.654;21.944;2023-07-16T13:28:37;3.10;;;2.00;;
12675;SDS011;63820;65.654;21.944;2023-07-16T13:31:21;1.77;;;1.67;;
12675;SDS011;63820;65.654;21.944;2023-07-16T13:34:05;2.10;;;1.80;;
12675;SDS011;63820;65.654;21.944;2023-07-16T13:36:49;2.20;;;1.73;;
12675;SDS011;63820;65.654;21.944;2023-07-16T13:39:33;2.57;;;1.70;;
12675;SDS011;63820;65.654;21.944;2023-07-16T13:42:17;2.00;;;1.70;;
12675;SDS011;63820;65.654;21.944;2023-07-16T13:45:01;2.93;;;1.70;;
12675;SDS011;63820;65.654;21.944;2023-07-16T13:47:48;2.00;;;1.60;;
12675;SDS011;63820;65.654;21.944;2023-07-16T13:50:33;2.43;;;1.70;;
12675;SDS011;63820;65.654;21.944;2023-07-16T13:53:17;2.13;;;1.50;;
12675;SDS011;63820;65.654;21.944;2023-07-16T13:56:01;2.10;;;1.70;;
12675;SDS011;63820;65.654;21.944;2023-07-16T13:58:45;2.67;;;1.57;;
12675;SDS011;63820;65.654;21.944;2023-07-16T14:01:29;2.00;;;1.53;;
12675;SDS011;63820;65.654;21.944;2023-07-16T14:04:13;2.43;;;1.80;;
12675;SDS011;63820;65.654;21.944;2023-07-16T14:06:58;1.53;;;1.43;;
12675;SDS011;63820;65.654;21.944;2023-07-16T14:09:43;1.90;;;1.70;;
12675;SDS011;63820;65.654;21.944;2023-07-16T14:12:27;3.43;;;1.77;;
12675;SDS011;63820;65.654;21.944;2023-07-16T14:15:11;2.83;;;1.50;;
12675;SDS011;63820;65.654;21.944;2023-07-16T14:17:55;2.53;;;1.60;;
12675;SDS011;63820;65.654;21.944;2023-07-16T14:20:39;2.00;;;1.80;;
12675;SDS011;63820;65.654;21.944;2023-07-16T14:23:23;1.70;;;1.60;;
12675;SDS011;63820;65.654;21.944;2023-07-16T14:26:07;5.07;;;1.90;;
12675;SDS011;63820;65.654;21.944;2023-07-16T14:28:51;1.87;;;1.77;;
12675;SDS011;63820;65.654;21.944;2023-07-16T14:31:35;2.57;;;1.60;;
12675;SDS011;63820;65.654;21.944;2023-07-16T14:34:19;2.63;;;1.63;;
12675;SDS011;63820;65.654;21.944;2023-07-16T14:37:03;1.80;;;1.60;;
12675;SDS011;63820;65.654;21.944;2023-07-16T14:39:48;2.93;;;2.00;;
12675;SDS011;63820;65.654;21.944;2023-07-16T14:42:32;2.57;;;2.03;;
12675;SDS011;63820;65.654;21.944;2023-07-16T14:45:16;1.90;;;1.70;;
12675;SDS011;63820;65.654;21.944;2023-07-16T14:48:01;1.80;;;1.70;;
12675;SDS011;63820;65.654;21.944;2023-07-16T14:50:48;1.70;;;1.60;;
12675;SDS011;63820;65.654;21.944;2023-07-16T14:53:32;2.73;;;1.70;;
12675;SDS011;63820;65.654;21.944;2023-07-16T14:56:16;2.60;;;1.80;;
12675;SDS011;63820;65.654;21.944;2023-07-16T14:59:01;2.30;;;1.77;;
12675;SDS011;63820;65.654;21.944;2023-07-16T15:01:45;2.63;;;1.70;;
12675;SDS011;63820;65.654;21.944;2023-07-16T15:04:29;2.80;;;2.50;;
12675;SDS011;63820;65.654;21.944;2023-07-16T15:07:13;2.50;;;1.93;;
12675;SDS011;63820;65.654;21.944;2023-07-16T15:09:57;1.83;;;1.73;;
12675;SDS011;63820;65.654;21.944;2023-07-16T15:12:41;1.93;;;1.83;;
12675;SDS011;63820;65.654;21.944;2023-07-16T15:15:25;2.77;;;1.83;;
12675;SDS011;63820;65.654;21.944;2023-07-16T15:18:09;2.50;;;2.03;;
12675;SDS011;63820;65.654;21.944;2023-07-16T15:20:56;2.40;;;2.20;;
12675;SDS011;63820;65.654;21.944;2023-07-16T15:23:43;2.33;;;2.13;;
12675;SDS011;63820;65.654;21.944;2023-07-16T15:26:28;2.30;;;2.10;;
12675;SDS011;63820;65.654;21.944;2023-07-16T15:29:12;3.80;;;2.40;;
12675;SDS011;63820;65.654;21.944;2023-07-16T15:31:56;3.13;;;2.43;;
12675;SDS011;63820;65.654;21.944;2023-07-16T15:34:40;3.27;;;2.63;;
12675;SDS011;63820;65.654;21.944;2023-07-16T15:37:25;2.90;;;2.70;;
12675;SDS011;63820;65.654;21.944;2023-07-16T15:40:13;3.10;;;2.83;;
12675;SDS011;63820;65.654;21.944;2023-07-16T15:42:59;3.77;;;2.90;;
12675;SDS011;63820;65.654;21.944;2023-07-16T15:45:44;4.13;;;2.80;;
12675;SDS011;63820;65.654;21.944;2023-07-16T15:48:28;4.80;;;3.20;;
12675;SDS011;63820;65.654;21.944;2023-07-16T15:51:12;4.33;;;3.20;;
12675;SDS011;63820;65.654;21.944;2023-07-16T15:53:56;6.43;;;3.50;;
12675;SDS011;63820;65.654;21.944;2023-07-16T15:56:41;4.43;;;3.33;;
12675;SDS011;63820;65.654;21.944;2023-07-16T15:59:24;5.20;;;3.83;;
12675;SDS011;63820;65.654;21.944;2023-07-16T16:02:08;4.67;;;3.63;;
12675;SDS011;63820;65.654;21.944;2023-07-16T16:04:52;4.97;;;3.83;;
12675;SDS011;63820;65.654;21.944;2023-07-16T16:07:42;4.43;;;3.60;;
12675;SDS011;63820;65.654;21.944;2023-07-16T16:10:28;5.50;;;4.17;;
12675;SDS011;63820;65.654;21.944;2023-07-16T16:13:12;5.33;;;3.80;;
12675;SDS011;63820;65.654;21.944;2023-07-16T16:15:56;5.60;;;4.30;;
12675;SDS011;63820;65.654;21.944;2023-07-16T16:18:40;5.60;;;4.10;;
12675;SDS011;63820;65.654;21.944;2023-07-16T16:21:24;7.03;;;4.23;;
12675;SDS011;63820;65.654;21.944;2023-07-16T16:24:08;6.60;;;4.60;;
12675;SDS011;63820;65.654;21.944;2023-07-16T16:26:53;8.33;;;4.60;;